createdAt,value
2023-03-16T00:00:18.604Z,7.19
2023-03-16T00:02:45.457Z,7.17
2023-03-16T00:05:14.089Z,7.14
2023-03-16T00:07:44.697Z,7.09
2023-03-16T00:10:14.885Z,7.07
2023-03-16T00:12:43.969Z,7.06
2023-03-16T00:15:12.688Z,7.05
2023-03-16T00:17:39.395Z,7.02
2023-03-16T00:20:07.216Z,7.01
2023-03-16T00:22:34.191Z,6.99
2023-03-16T00:25:01.921Z,6.98
2023-03-16T00:27:29.547Z,6.97
2023-03-16T00:29:56.828Z,6.98
2023-03-16T00:32:26.903Z,6.99
2023-03-16T00:34:54.088Z,6.99
2023-03-16T00:37:23.626Z,6.99
2023-03-16T00:39:51.843Z,6.99
2023-03-16T00:42:20.095Z,6.98
2023-03-16T00:44:46.946Z,6.95
2023-03-16T00:47:16.676Z,6.95
2023-03-16T00:49:44.211Z,6.94
2023-03-16T00:52:16.330Z,6.95
2023-03-16T00:54:44.825Z,6.96
2023-03-16T00:57:13.792Z,6.98
2023-03-16T00:59:41.574Z,7.01
2023-03-16T01:02:10.074Z,7.02
2023-03-16T01:04:37.326Z,7.02
2023-03-16T01:07:05.335Z,7.01
2023-03-16T01:09:37.011Z,7.01
2023-03-16T01:12:09.538Z,6.99
2023-03-16T01:14:37.124Z,6.98
2023-03-16T01:17:08.456Z,6.95
2023-03-16T01:19:57.041Z,6.93
2023-03-16T01:22:23.936Z,6.94
2023-03-16T01:24:50.517Z,6.94
2023-03-16T01:27:17.461Z,6.92
2023-03-16T01:29:44.563Z,6.91
2023-03-16T01:32:12.219Z,6.89
2023-03-16T01:34:39.263Z,6.87
2023-03-16T01:37:06.452Z,6.86
2023-03-16T01:39:41.409Z,6.89
2023-03-16T01:42:09.097Z,6.91
2023-03-16T01:45:01.630Z,6.92
2023-03-16T01:47:38.438Z,6.93
2023-03-16T01:50:07.626Z,6.95
2023-03-16T01:52:38.635Z,6.95
2023-03-16T01:55:13.560Z,6.94
2023-03-16T01:57:43.892Z,6.92
2023-03-16T02:00:23.674Z,6.92
2023-03-16T02:03:13.930Z,6.93
2023-03-16T02:06:03.288Z,6.95
2023-03-16T02:08:31.835Z,6.96
2023-03-16T02:10:59.517Z,6.96
2023-03-16T02:13:37.291Z,6.93
2023-03-16T02:16:08.762Z,6.90
2023-03-16T02:18:36.368Z,6.86
2023-03-16T02:21:28.132Z,6.84
2023-03-16T02:23:55.243Z,6.82
2023-03-16T02:26:50.827Z,6.79
2023-03-16T02:29:33.092Z,6.80
2023-03-16T02:32:02.750Z,6.79
2023-03-16T02:34:30.086Z,6.79
2023-03-16T02:36:58.606Z,6.79
2023-03-16T02:39:25.654Z,6.80
2023-03-16T02:41:52.711Z,6.79
2023-03-16T02:44:27.934Z,6.76
2023-03-16T02:46:58.437Z,6.73
2023-03-16T02:49:32.776Z,6.70
2023-03-16T02:51:59.966Z,6.69
2023-03-16T02:54:27.035Z,6.66
2023-03-16T02:56:53.736Z,6.64
2023-03-16T02:59:21.589Z,6.64
2023-03-16T03:01:48.560Z,6.63
2023-03-16T03:04:16.542Z,6.64
2023-03-16T03:06:43.361Z,6.66
2023-03-16T03:09:11.874Z,6.66
2023-03-16T03:11:39.641Z,6.64
2023-03-16T03:14:06.751Z,6.63
2023-03-16T03:16:34.045Z,6.61
2023-03-16T03:19:01.077Z,6.57
2023-03-16T03:21:29.655Z,6.54
2023-03-16T03:23:56.416Z,6.51
2023-03-16T03:26:24.671Z,6.50
2023-03-16T03:28:52.766Z,6.48
2023-03-16T03:31:22.278Z,6.48
2023-03-16T03:33:50.817Z,6.46
2023-03-16T03:36:17.390Z,6.45
2023-03-16T03:38:44.709Z,6.43
2023-03-16T03:41:12.912Z,6.41
2023-03-16T03:43:39.691Z,6.38
2023-03-16T03:46:08.157Z,6.37
2023-03-16T03:48:34.959Z,6.35
2023-03-16T03:51:02.890Z,6.33
2023-03-16T03:53:44.133Z,6.33
2023-03-16T03:56:18.754Z,6.35
2023-03-16T03:58:46.055Z,6.35
2023-03-16T04:01:16.881Z,6.38
2023-03-16T04:03:45.152Z,6.41
2023-03-16T04:06:13.640Z,6.41
2023-03-16T04:08:40.281Z,6.44
2023-03-16T04:11:09.888Z,6.44
2023-03-16T04:13:36.638Z,6.44
2023-03-16T04:16:04.100Z,6.45
2023-03-16T04:18:41.033Z,6.45
2023-03-16T04:21:15.887Z,6.45
2023-03-16T04:23:43.438Z,6.44
2023-03-16T04:26:11.155Z,6.44
2023-03-16T04:28:38.436Z,6.42
2023-03-16T04:31:07.401Z,6.42
2023-03-16T04:33:39.983Z,6.40
2023-03-16T04:36:07.339Z,6.38
2023-03-16T04:38:36.678Z,6.39
2023-03-16T04:41:04.731Z,6.38
2023-03-16T04:43:37.507Z,6.35
2023-03-16T04:46:15.523Z,6.34
2023-03-16T04:48:42.809Z,6.31
2023-03-16T04:51:10.105Z,6.28
2023-03-16T04:53:39.462Z,6.27
2023-03-16T04:56:18.421Z,6.27
2023-03-16T04:58:50.620Z,6.27
2023-03-16T05:01:18.545Z,6.23
2023-03-16T05:03:46.029Z,6.22
2023-03-16T05:06:12.965Z,6.21
2023-03-16T05:08:40.767Z,6.19
2023-03-16T05:11:08.117Z,6.17
2023-03-16T05:13:37.387Z,6.13
2023-03-16T05:16:04.630Z,6.09
2023-03-16T05:18:35.390Z,6.06
2023-03-16T05:21:02.337Z,6.06
2023-03-16T05:23:37.879Z,6.05
2023-03-16T05:26:05.121Z,6.04
2023-03-16T05:28:33.193Z,6.02
2023-03-16T05:31:04.016Z,6.04
2023-03-16T05:33:36.125Z,6.03
2023-03-16T05:36:06.669Z,6.02
2023-03-16T05:38:34.068Z,6.03
2023-03-16T05:41:04.607Z,6.07
2023-03-16T05:43:42.261Z,6.11
2023-03-16T05:46:09.617Z,6.13
2023-03-16T05:48:37.350Z,6.16
2023-03-16T05:51:06.152Z,6.18
2023-03-16T05:53:33.749Z,6.20
2023-03-16T05:56:08.463Z,6.26
2023-03-16T05:58:38.181Z,6.30
2023-03-16T06:01:07.803Z,6.50
2023-03-16T06:03:34.478Z,6.85
2023-03-16T06:06:02.237Z,7.21
2023-03-16T06:08:36.593Z,7.57
2023-03-16T06:11:07.977Z,7.83
2023-03-16T06:13:34.777Z,7.94
2023-03-16T06:16:02.297Z,8.01
2023-03-16T06:18:29.582Z,8.04
2023-03-16T06:20:56.389Z,8.11
2023-03-16T06:23:24.255Z,8.18
2023-03-16T06:25:54.621Z,8.20
2023-03-16T06:28:23.215Z,8.20
2023-03-16T06:30:54.126Z,8.22
2023-03-16T06:33:21.418Z,8.27
2023-03-16T06:35:50.029Z,8.30
2023-03-16T06:38:21.715Z,8.30
2023-03-16T06:40:55.208Z,8.31
2023-03-16T06:43:22.227Z,8.35
2023-03-16T06:45:49.664Z,8.38
2023-03-16T06:48:16.987Z,8.42
2023-03-16T06:50:46.639Z,8.46
2023-03-16T06:53:18.983Z,8.51
2023-03-16T06:55:46.206Z,8.57
2023-03-16T06:58:12.846Z,8.66
2023-03-16T07:00:40.506Z,8.78
2023-03-16T07:03:07.234Z,8.91
2023-03-16T07:05:34.111Z,9.02
2023-03-16T07:08:01.382Z,9.10
2023-03-16T07:10:28.417Z,9.17
2023-03-16T07:12:55.425Z,9.22
2023-03-16T07:15:22.513Z,9.25
2023-03-16T07:17:50.212Z,9.29
2023-03-16T07:20:16.974Z,9.30
2023-03-16T07:22:43.784Z,9.34
2023-03-16T07:25:11.642Z,9.38
2023-03-16T07:27:43.852Z,9.42
2023-03-16T07:30:14.424Z,9.48
2023-03-16T07:32:42.810Z,9.54
2023-03-16T07:35:11.843Z,9.59
2023-03-16T07:37:38.592Z,9.65
2023-03-16T07:40:09.365Z,9.71
2023-03-16T07:42:37.761Z,9.79
2023-03-16T07:45:15.210Z,9.86
2023-03-16T07:47:42.393Z,9.94
2023-03-16T07:50:17.020Z,10.08
2023-03-16T07:52:47.063Z,10.20
2023-03-16T07:55:14.550Z,10.33
2023-03-16T07:57:42.324Z,10.47
2023-03-16T08:00:10.763Z,10.64
2023-03-16T08:02:41.959Z,10.79
2023-03-16T08:05:13.045Z,10.88
2023-03-16T08:07:41.520Z,10.94
2023-03-16T08:10:12.107Z,11.02
2023-03-16T08:12:43.826Z,11.15
2023-03-16T08:15:11.872Z,11.25
2023-03-16T08:17:41.884Z,11.31
2023-03-16T08:20:15.071Z,11.43
2023-03-16T08:22:46.152Z,11.55
2023-03-16T08:25:15.325Z,11.70
2023-03-16T08:27:50.330Z,11.82
2023-03-16T08:30:17.993Z,11.92
2023-03-16T08:32:48.308Z,12.04
2023-03-16T08:35:16.859Z,12.18
2023-03-16T08:37:44.392Z,12.30
2023-03-16T08:40:15.977Z,12.44
2023-03-16T08:42:44.483Z,12.58
2023-03-16T08:45:14.420Z,12.72
2023-03-16T08:47:43.086Z,12.85
2023-03-16T08:50:13.321Z,12.94
2023-03-16T08:52:40.897Z,12.99
2023-03-16T08:55:10.394Z,13.07
2023-03-16T08:57:39.458Z,13.16
2023-03-16T09:00:13.628Z,13.23
2023-03-16T09:02:41.746Z,13.29
2023-03-16T09:05:11.366Z,13.33
2023-03-16T09:07:39.502Z,13.37
2023-03-16T09:10:07.926Z,13.40
2023-03-16T09:12:38.545Z,13.45
2023-03-16T09:15:06.852Z,13.51
2023-03-16T09:17:34.779Z,13.56
2023-03-16T09:20:15.326Z,13.65
2023-03-16T09:22:46.173Z,13.75
2023-03-16T09:25:12.792Z,13.79
2023-03-16T09:27:39.625Z,13.79
2023-03-16T09:30:08.099Z,13.84
2023-03-16T09:32:35.249Z,13.92
2023-03-16T09:35:02.602Z,14.03
2023-03-16T09:37:44.431Z,14.15
2023-03-16T09:40:39.694Z,14.21
2023-03-16T09:43:27.633Z,14.25
2023-03-16T09:46:27.163Z,14.31
2023-03-16T09:48:56.120Z,14.39
2023-03-16T09:51:35.400Z,14.45
2023-03-16T09:54:06.662Z,14.49
2023-03-16T09:56:41.543Z,14.52
2023-03-16T09:59:16.661Z,14.58
2023-03-16T10:01:50.778Z,14.67
2023-03-16T10:04:50.735Z,14.76
2023-03-16T10:07:30.313Z,14.82
2023-03-16T10:10:02.279Z,14.85
2023-03-16T10:12:36.093Z,14.87
2023-03-16T10:15:10.308Z,14.94
2023-03-16T10:17:37.649Z,15.02
2023-03-16T10:20:17.470Z,15.10
2023-03-16T10:22:46.941Z,15.15
2023-03-16T10:25:27.738Z,15.20
2023-03-16T10:27:54.642Z,15.26
2023-03-16T10:30:28.307Z,15.30
2023-03-16T10:33:02.371Z,15.29
2023-03-16T10:35:58.261Z,15.29
2023-03-16T10:38:38.889Z,15.36
2023-03-16T10:41:17.825Z,15.41
2023-03-16T10:43:49.668Z,15.42
2023-03-16T10:46:16.810Z,15.45
2023-03-16T10:48:53.673Z,15.55
2023-03-16T10:51:26.288Z,15.66
2023-03-16T10:53:54.589Z,15.76
2023-03-16T10:56:25.446Z,15.85
2023-03-16T10:58:52.422Z,15.93
2023-03-16T11:01:24.169Z,16.03
2023-03-16T11:03:55.575Z,16.13
2023-03-16T11:06:25.848Z,16.21
2023-03-16T11:08:55.094Z,16.31
2023-03-16T11:11:30.010Z,16.36
2023-03-16T11:14:02.162Z,16.42
2023-03-16T11:16:40.248Z,16.45
2023-03-16T11:19:29.322Z,16.50
2023-03-16T11:22:02.109Z,16.58
2023-03-16T11:24:41.500Z,16.64
2023-03-16T11:27:21.596Z,16.66
2023-03-16T11:30:12.095Z,16.69
2023-03-16T11:32:40.833Z,16.75
2023-03-16T11:35:19.752Z,16.72
2023-03-16T11:38:11.822Z,16.72
2023-03-16T11:41:00.335Z,16.74
2023-03-16T11:43:53.642Z,16.82
2023-03-16T11:46:31.720Z,16.86
2023-03-16T11:49:17.813Z,16.88
2023-03-16T11:52:08.414Z,16.93
2023-03-16T11:54:48.689Z,16.94
2023-03-16T11:57:59.665Z,16.97
2023-03-16T12:00:46.820Z,17.02
2023-03-16T12:03:37.826Z,17.06
2023-03-16T12:06:33.057Z,17.02
2023-03-16T12:09:23.069Z,17.06
2023-03-16T12:12:17.400Z,17.09
2023-03-16T12:14:53.938Z,17.03
2023-03-16T12:17:27.438Z,16.90
2023-03-16T12:20:04.167Z,16.85
2023-03-16T12:22:41.118Z,16.85
2023-03-16T12:25:25.269Z,16.83
2023-03-16T12:27:58.692Z,16.91
2023-03-16T12:30:49.038Z,16.95
2023-03-16T12:33:53.313Z,17.00
2023-03-16T12:36:43.119Z,16.98
2023-03-16T12:39:30.006Z,16.90
2023-03-16T12:42:15.164Z,16.87
2023-03-16T12:45:08.645Z,16.92
2023-03-16T12:47:48.557Z,16.96
2023-03-16T12:50:18.777Z,16.96
2023-03-16T12:52:52.180Z,16.95
2023-03-16T12:55:19.537Z,16.91
2023-03-16T12:57:51.505Z,16.90
2023-03-16T13:00:19.649Z,16.85
2023-03-16T13:02:56.220Z,16.83
2023-03-16T13:05:32.903Z,16.83
2023-03-16T13:08:05.796Z,16.82
2023-03-16T13:10:33.418Z,16.81
2023-03-16T13:13:16.259Z,16.78
2023-03-16T13:15:47.577Z,16.75
2023-03-16T13:18:17.418Z,16.70
2023-03-16T13:21:00.931Z,16.71
2023-03-16T13:23:30.245Z,16.72
2023-03-16T13:26:22.967Z,16.71
2023-03-16T13:28:55.325Z,16.67
2023-03-16T13:31:25.411Z,16.62
2023-03-16T13:33:56.119Z,16.57
2023-03-16T13:36:27.165Z,16.52
2023-03-16T13:39:18.762Z,16.45
2023-03-16T13:42:18.425Z,16.38
2023-03-16T13:44:45.645Z,16.32
2023-03-16T13:47:17.160Z,16.27
2023-03-16T13:49:45.226Z,16.21
2023-03-16T13:52:20.993Z,16.12
2023-03-16T13:54:50.221Z,16.02
2023-03-16T13:57:25.050Z,15.96
2023-03-16T13:59:59.097Z,15.93
2023-03-16T14:02:25.859Z,15.96
2023-03-16T14:04:52.498Z,16.00
2023-03-16T14:07:20.980Z,16.03
2023-03-16T14:09:49.945Z,16.06
2023-03-16T14:12:20.070Z,16.09
2023-03-16T14:14:50.833Z,16.02
2023-03-16T14:17:20.762Z,15.91
2023-03-16T14:19:54.381Z,15.89
2023-03-16T14:22:28.676Z,15.89
2023-03-16T14:25:00.739Z,15.90
2023-03-16T14:27:39.882Z,15.91
2023-03-16T14:30:18.316Z,15.93
2023-03-16T14:33:01.800Z,15.92
2023-03-16T14:35:33.910Z,15.92
2023-03-16T14:38:37.135Z,15.92
2023-03-16T14:41:08.808Z,15.92
2023-03-16T14:43:38.373Z,15.88
2023-03-16T14:46:07.408Z,15.84
2023-03-16T14:48:35.697Z,15.78
2023-03-16T14:51:04.475Z,15.73
2023-03-16T14:53:31.830Z,15.71
2023-03-16T14:55:59.503Z,15.69
2023-03-16T14:58:26.224Z,15.67
2023-03-16T15:00:53.904Z,15.64
2023-03-16T15:03:27.329Z,15.62
2023-03-16T15:05:54.672Z,15.60
2023-03-16T15:08:28.710Z,15.53
2023-03-16T15:11:00.851Z,15.45
2023-03-16T15:13:35.190Z,15.38
2023-03-16T15:16:06.218Z,15.33
2023-03-16T15:18:33.779Z,15.26
2023-03-16T15:21:02.380Z,15.23
2023-03-16T15:23:29.347Z,15.25
2023-03-16T15:26:00.395Z,15.25
2023-03-16T15:28:27.841Z,15.23
2023-03-16T15:30:57.510Z,15.21
2023-03-16T15:33:25.797Z,15.18
2023-03-16T15:35:56.620Z,15.15
2023-03-16T15:38:24.802Z,15.12
2023-03-16T15:40:53.245Z,15.08
2023-03-16T15:43:25.684Z,15.07
2023-03-16T15:45:52.590Z,15.04
2023-03-16T15:48:21.684Z,15.02
2023-03-16T15:50:56.887Z,15.01
2023-03-16T15:53:33.608Z,14.99
2023-03-16T15:56:08.286Z,14.97
2023-03-16T15:58:36.625Z,14.94
2023-03-16T16:01:07.360Z,14.89
2023-03-16T16:03:34.570Z,14.84
2023-03-16T16:06:02.100Z,14.79
2023-03-16T16:08:28.884Z,14.72
2023-03-16T16:10:56.452Z,14.63
2023-03-16T16:13:37.552Z,14.56
2023-03-16T16:16:12.616Z,14.48
2023-03-16T16:18:40.264Z,14.41
2023-03-16T16:21:14.229Z,14.35
2023-03-16T16:23:40.915Z,14.32
2023-03-16T16:26:20.410Z,14.28
2023-03-16T16:28:47.797Z,14.23
2023-03-16T16:31:14.626Z,14.19
2023-03-16T16:33:41.391Z,14.13
2023-03-16T16:36:15.146Z,14.07
2023-03-16T16:38:41.827Z,14.00
2023-03-16T16:41:09.502Z,13.95
2023-03-16T16:43:44.017Z,13.91
2023-03-16T16:46:15.621Z,13.84
2023-03-16T16:48:46.573Z,13.78
2023-03-16T16:51:24.975Z,13.71
2023-03-16T16:53:54.469Z,13.65
2023-03-16T16:56:33.732Z,13.59
2023-03-16T16:59:07.740Z,13.53
2023-03-16T17:01:35.397Z,13.46
2023-03-16T17:04:02.855Z,13.38
2023-03-16T17:06:30.065Z,13.31
2023-03-16T17:08:56.681Z,13.24
2023-03-16T17:11:29.879Z,13.16
2023-03-16T17:14:00.659Z,13.09
2023-03-16T17:16:31.607Z,13.03
2023-03-16T17:18:58.761Z,12.95
2023-03-16T17:21:29.977Z,12.89
2023-03-16T17:23:57.561Z,12.83
2023-03-16T17:26:39.611Z,12.79
2023-03-16T17:29:17.719Z,12.74
2023-03-16T17:31:44.335Z,12.70
2023-03-16T17:34:23.248Z,12.67
2023-03-16T17:36:50.204Z,12.64
2023-03-16T17:39:25.072Z,12.61
2023-03-16T17:42:01.449Z,12.57
2023-03-16T17:44:33.866Z,12.52
2023-03-16T17:47:00.826Z,12.47
2023-03-16T17:49:28.604Z,12.43
2023-03-16T17:51:56.068Z,12.38
2023-03-16T17:54:23.096Z,12.35
2023-03-16T17:56:51.983Z,12.31
2023-03-16T17:59:21.728Z,12.27
2023-03-16T18:01:48.968Z,12.23
2023-03-16T18:04:17.540Z,12.17
2023-03-16T18:06:47.149Z,12.10
2023-03-16T18:09:15.069Z,12.03
2023-03-16T18:11:46.697Z,11.94
2023-03-16T18:14:36.590Z,11.86
2023-03-16T18:17:32.504Z,11.79
2023-03-16T18:19:59.860Z,11.70
2023-03-16T18:22:27.924Z,11.62
2023-03-16T18:24:55.315Z,11.54
2023-03-16T18:27:22.419Z,11.48
2023-03-16T18:29:49.217Z,11.39
2023-03-16T18:32:27.438Z,11.27
2023-03-16T18:34:54.830Z,11.17
2023-03-16T18:37:24.567Z,11.13
2023-03-16T18:39:52.874Z,11.12
2023-03-16T18:42:21.870Z,11.11
2023-03-16T18:44:49.104Z,11.09
2023-03-16T18:47:43.325Z,11.07
2023-03-16T18:50:20.000Z,11.03
2023-03-16T18:52:47.050Z,10.98
2023-03-16T18:55:16.886Z,10.92
2023-03-16T18:57:43.650Z,10.89
2023-03-16T19:00:16.122Z,10.86
2023-03-16T19:02:44.508Z,10.85
2023-03-16T19:05:21.987Z,10.83
2023-03-16T19:07:52.433Z,10.75
2023-03-16T19:10:26.376Z,10.69
2023-03-16T19:12:54.813Z,10.63
2023-03-16T19:15:27.980Z,10.56
2023-03-16T19:17:55.387Z,10.52
2023-03-16T19:20:27.328Z,10.49
2023-03-16T19:23:16.218Z,10.48
2023-03-16T19:25:43.293Z,10.46
2023-03-16T19:28:33.692Z,10.44
2023-03-16T19:31:02.010Z,10.42
2023-03-16T19:33:29.321Z,10.39
2023-03-16T19:35:57.217Z,10.37
2023-03-16T19:38:25.654Z,10.37
2023-03-16T19:40:56.415Z,10.34
2023-03-16T19:43:24.360Z,10.31
2023-03-16T19:45:51.786Z,10.28
2023-03-16T19:48:22.687Z,10.26
2023-03-16T19:50:51.215Z,10.21
2023-03-16T19:53:22.641Z,10.16
2023-03-16T19:55:52.143Z,10.13
2023-03-16T19:58:38.533Z,10.11
2023-03-16T20:01:17.618Z,10.11
2023-03-16T20:03:47.559Z,10.09
2023-03-16T20:06:16.566Z,10.09
2023-03-16T20:08:44.189Z,10.07
2023-03-16T20:11:29.425Z,10.06
2023-03-16T20:13:57.393Z,10.04
2023-03-16T20:16:28.576Z,10.03
2023-03-16T20:18:58.921Z,10.00
2023-03-16T20:21:26.700Z,9.95
2023-03-16T20:23:54.346Z,9.91
2023-03-16T20:26:27.581Z,9.88
2023-03-16T20:28:54.525Z,9.88
2023-03-16T20:31:24.617Z,9.88
2023-03-16T20:33:52.869Z,9.86
2023-03-16T20:36:21.958Z,9.82
2023-03-16T20:38:48.903Z,9.75
2023-03-16T20:41:32.286Z,9.70
2023-03-16T20:44:01.892Z,9.66
2023-03-16T20:46:31.113Z,9.62
2023-03-16T20:49:00.704Z,9.58
2023-03-16T20:51:28.818Z,9.55
2023-03-16T20:53:55.498Z,9.50
2023-03-16T20:56:25.833Z,9.45
2023-03-16T20:58:55.811Z,9.40
2023-03-16T21:01:23.473Z,9.36
2023-03-16T21:03:54.465Z,9.33
2023-03-16T21:06:27.665Z,9.32
2023-03-16T21:08:57.129Z,9.30
2023-03-16T21:11:37.461Z,9.28
2023-03-16T21:14:06.261Z,9.26
2023-03-16T21:16:33.424Z,9.24
2023-03-16T21:19:00.114Z,9.24
2023-03-16T21:21:26.784Z,9.23
2023-03-16T21:23:53.466Z,9.21
2023-03-16T21:26:23.269Z,9.18
2023-03-16T21:28:57.581Z,9.16
2023-03-16T21:31:25.919Z,9.16
2023-03-16T21:33:54.112Z,9.16
2023-03-16T21:36:23.815Z,9.15
2023-03-16T21:38:51.007Z,9.09
2023-03-16T21:41:18.004Z,9.02
2023-03-16T21:43:46.696Z,8.97
2023-03-16T21:46:18.910Z,8.92
2023-03-16T21:48:49.684Z,8.88
2023-03-16T21:51:30.325Z,8.86
2023-03-16T21:53:58.240Z,8.87
2023-03-16T21:56:26.185Z,8.85
2023-03-16T21:58:53.960Z,8.83
2023-03-16T22:01:30.251Z,8.81
2023-03-16T22:04:01.758Z,8.79
2023-03-16T22:06:29.065Z,8.78
2023-03-16T22:08:57.660Z,8.73
2023-03-16T22:11:29.514Z,8.68
2023-03-16T22:13:58.003Z,8.64
2023-03-16T22:16:28.113Z,8.57
2023-03-16T22:18:57.031Z,8.58
2023-03-16T22:21:34.380Z,8.62
2023-03-16T22:24:02.748Z,8.62
2023-03-16T22:26:29.831Z,8.63
2023-03-16T22:28:57.444Z,8.64
2023-03-16T22:31:32.899Z,8.64
2023-03-16T22:34:00.864Z,8.61
2023-03-16T22:36:28.461Z,8.55
2023-03-16T22:39:01.999Z,8.48
2023-03-16T22:41:29.988Z,8.42
2023-03-16T22:43:57.292Z,8.42
2023-03-16T22:46:27.092Z,8.44
2023-03-16T22:48:55.515Z,8.46
2023-03-16T22:51:48.426Z,8.45
2023-03-16T22:54:18.428Z,8.40
2023-03-16T22:56:47.760Z,8.35
2023-03-16T22:59:18.831Z,8.30
2023-03-16T23:01:48.714Z,8.26
2023-03-16T23:04:16.873Z,8.24
2023-03-16T23:06:43.644Z,8.21
2023-03-16T23:09:13.873Z,8.18
2023-03-16T23:11:43.477Z,8.14
2023-03-16T23:14:14.641Z,8.08
2023-03-16T23:16:41.990Z,8.01
2023-03-16T23:19:34.051Z,7.95
2023-03-16T23:22:06.355Z,7.92
2023-03-16T23:24:34.398Z,7.87
2023-03-16T23:27:01.521Z,7.83
2023-03-16T23:29:28.915Z,7.83
2023-03-16T23:31:56.664Z,7.84
2023-03-16T23:34:25.095Z,7.84
2023-03-16T23:36:52.758Z,7.83
2023-03-16T23:39:19.386Z,7.83
2023-03-16T23:41:47.651Z,7.85
2023-03-16T23:44:24.518Z,7.84
2023-03-16T23:46:51.513Z,7.77
2023-03-16T23:49:22.466Z,7.75
2023-03-16T23:51:50.290Z,7.76
2023-03-16T23:54:23.429Z,7.75
2023-03-16T23:56:50.780Z,7.74
2023-03-16T23:59:19.597Z,7.74
